createdAt,value
2023-02-08T00:01:44.418Z,5.00
2023-02-08T00:05:47.756Z,4.63
2023-02-08T00:09:50.758Z,5.13
2023-02-08T00:13:54.084Z,4.63
2023-02-08T00:17:57.001Z,5.28
2023-02-08T00:21:59.961Z,4.80
2023-02-08T00:26:02.797Z,4.55
2023-02-08T00:30:06.042Z,5.05
2023-02-08T00:34:08.977Z,4.40
2023-02-08T00:38:12.192Z,4.93
2023-02-08T00:42:14.956Z,4.78
2023-02-08T00:46:17.936Z,4.88
2023-02-08T00:50:21.140Z,4.57
2023-02-08T00:54:23.975Z,6.50
2023-02-08T00:58:26.816Z,7.35
2023-02-08T01:02:29.712Z,7.13
2023-02-08T01:06:32.912Z,7.50
2023-02-08T01:10:36.331Z,6.35
2023-02-08T01:14:40.200Z,6.30
2023-02-08T01:18:45.965Z,6.03
2023-02-08T01:22:54.851Z,5.28
2023-02-08T01:26:59.331Z,5.90
2023-02-08T01:31:12.058Z,5.03
2023-02-08T01:35:16.176Z,5.45
2023-02-08T01:39:19.472Z,6.43
2023-02-08T01:43:28.941Z,4.88
2023-02-08T01:47:32.176Z,5.00
2023-02-08T01:51:44.330Z,4.78
2023-02-08T01:55:52.172Z,4.15
2023-02-08T01:59:59.892Z,4.32
2023-02-08T02:04:04.940Z,4.30
2023-02-08T02:08:08.275Z,4.63
2023-02-08T02:12:13.182Z,5.28
2023-02-08T02:16:17.747Z,4.75
2023-02-08T02:20:29.614Z,5.10
2023-02-08T02:24:48.751Z,4.10
2023-02-08T02:29:18.521Z,5.30
2023-02-08T02:33:47.791Z,6.30
2023-02-08T02:38:03.412Z,5.60
2023-02-08T02:42:47.308Z,5.28
2023-02-08T02:47:03.040Z,5.55
2023-02-08T02:51:30.991Z,4.82
2023-02-08T02:55:48.924Z,5.55
2023-02-08T03:00:49.125Z,6.43
2023-02-08T03:04:55.965Z,5.47
2023-02-08T03:09:51.854Z,4.53
2023-02-08T03:14:13.290Z,3.90
2023-02-08T03:18:37.396Z,4.13
2023-02-08T03:23:08.854Z,3.85
2023-02-08T03:27:18.058Z,3.72
2023-02-08T03:31:27.434Z,4.07
2023-02-08T03:35:38.702Z,3.40
2023-02-08T03:39:43.538Z,4.22
2023-02-08T03:44:00.135Z,5.63
2023-02-08T03:48:06.786Z,6.13
2023-02-08T03:52:19.302Z,6.18
2023-02-08T03:56:48.643Z,5.07
2023-02-08T04:01:20.925Z,4.10
2023-02-08T04:05:25.993Z,3.78
2023-02-08T04:09:29.572Z,5.15
2023-02-08T04:13:34.938Z,3.83
2023-02-08T04:17:38.428Z,3.42
2023-02-08T04:21:53.187Z,3.65
2023-02-08T04:25:57.332Z,4.05
2023-02-08T04:30:06.130Z,3.67
2023-02-08T04:34:13.398Z,3.33
2023-02-08T04:38:16.242Z,3.85
2023-02-08T04:42:35.535Z,3.72
2023-02-08T04:46:52.267Z,3.72
2023-02-08T04:50:56.898Z,3.83
2023-02-08T04:54:59.629Z,3.65
2023-02-08T04:59:09.499Z,3.58
2023-02-08T05:03:12.383Z,3.28
2023-02-08T05:07:15.906Z,4.40
2023-02-08T05:11:23.535Z,5.32
2023-02-08T05:15:26.679Z,3.53
2023-02-08T05:19:30.039Z,3.95
2023-02-08T05:23:35.513Z,3.93
2023-02-08T05:27:49.106Z,2.97
2023-02-08T05:31:51.941Z,3.22
2023-02-08T05:36:18.206Z,3.93
2023-02-08T05:40:21.614Z,3.33
2023-02-08T05:44:24.593Z,3.40
2023-02-08T05:48:27.616Z,4.03
2023-02-08T05:52:30.465Z,3.13
2023-02-08T05:56:33.881Z,3.33
2023-02-08T06:00:36.893Z,3.50
2023-02-08T06:04:39.780Z,3.92
2023-02-08T06:08:42.918Z,3.78
2023-02-08T06:12:45.668Z,3.97
2023-02-08T06:16:49.935Z,3.67
2023-02-08T06:20:54.277Z,3.40
2023-02-08T06:24:57.081Z,3.45
2023-02-08T06:29:00.390Z,4.03
2023-02-08T06:33:06.177Z,2.78
2023-02-08T06:37:09.668Z,3.13
2023-02-08T06:41:12.572Z,2.78
2023-02-08T06:45:15.458Z,4.88
2023-02-08T06:49:18.292Z,4.65
2023-02-08T06:53:21.641Z,4.10
2023-02-08T06:57:24.535Z,4.25
2023-02-08T07:01:27.753Z,4.32
2023-02-08T07:05:30.561Z,3.97
2023-02-08T07:09:35.298Z,4.38
2023-02-08T07:13:38.609Z,3.97
2023-02-08T07:17:41.475Z,3.67
2023-02-08T07:21:44.255Z,4.82
2023-02-08T07:25:55.866Z,5.25
2023-02-08T07:29:58.705Z,4.35
2023-02-08T07:34:01.618Z,5.97
2023-02-08T07:38:04.340Z,7.65
2023-02-08T07:42:09.540Z,6.80
2023-02-08T07:46:23.759Z,6.30
2023-02-08T07:50:26.570Z,6.63
2023-02-08T07:54:31.239Z,6.00
2023-02-08T07:58:34.161Z,5.65
2023-02-08T08:02:36.958Z,5.10
2023-02-08T08:06:39.861Z,6.85
2023-02-08T08:10:43.073Z,5.90
2023-02-08T08:14:45.962Z,5.45
2023-02-08T08:18:48.989Z,6.47
2023-02-08T08:22:51.860Z,7.28
2023-02-08T08:26:54.787Z,6.13
2023-02-08T08:30:57.601Z,7.47
2023-02-08T08:35:00.519Z,6.30
2023-02-08T08:39:03.560Z,7.07
2023-02-08T08:43:06.369Z,7.70
2023-02-08T08:47:09.978Z,8.32
2023-02-08T08:51:14.387Z,8.60
2023-02-08T08:55:17.154Z,8.68
2023-02-08T08:59:21.395Z,5.50
2023-02-08T09:03:24.298Z,7.20
2023-02-08T09:07:27.200Z,5.18
2023-02-08T09:11:29.986Z,5.25
2023-02-08T09:15:32.732Z,5.53
2023-02-08T09:19:35.487Z,4.20
2023-02-08T09:23:38.522Z,5.22
2023-02-08T09:27:41.508Z,5.40
2023-02-08T09:31:44.395Z,4.22
2023-02-08T09:35:49.601Z,3.50
2023-02-08T09:39:52.613Z,4.22
2023-02-08T09:44:11.399Z,4.32
2023-02-08T09:48:33.996Z,2.60
2023-02-08T09:52:44.817Z,4.10
2023-02-08T09:56:49.032Z,4.20
2023-02-08T10:00:53.506Z,4.50
2023-02-08T10:05:12.168Z,4.32
2023-02-08T10:09:18.805Z,3.05
2023-02-08T10:13:40.758Z,4.55
2023-02-08T10:17:44.093Z,3.70
2023-02-08T10:22:17.728Z,4.10
2023-02-08T10:26:31.426Z,4.05
2023-02-08T10:30:48.489Z,3.58
2023-02-08T10:34:51.451Z,3.55
2023-02-08T10:38:56.436Z,4.32
2023-02-08T10:43:15.289Z,4.18
2023-02-08T10:47:38.862Z,3.75
2023-02-08T10:51:42.039Z,3.40
2023-02-08T10:55:47.624Z,3.97
2023-02-08T10:59:58.871Z,3.35
2023-02-08T11:04:11.349Z,3.35
2023-02-08T11:08:24.335Z,3.22
2023-02-08T11:12:27.355Z,4.20
2023-02-08T11:16:30.311Z,3.95
2023-02-08T11:20:37.581Z,3.40
2023-02-08T11:24:43.235Z,4.03
2023-02-08T11:29:15.157Z,4.25
2023-02-08T11:33:22.800Z,3.97
2023-02-08T11:37:28.679Z,3.03
2023-02-08T11:41:31.894Z,3.00
2023-02-08T11:45:37.177Z,3.72
2023-02-08T11:49:43.010Z,2.80
2023-02-08T11:53:48.989Z,3.50
2023-02-08T11:58:14.070Z,3.17
2023-02-08T12:02:42.436Z,4.00
2023-02-08T12:07:15.553Z,8.50
2023-02-08T12:11:42.839Z,5.00
2023-02-08T12:16:01.308Z,3.78
2023-02-08T12:20:16.707Z,4.00
2023-02-08T12:24:31.572Z,3.97
2023-02-08T12:28:57.133Z,3.92
2023-02-08T12:33:12.086Z,3.25
2023-02-08T12:38:11.933Z,4.30
2023-02-08T12:42:24.086Z,4.07
2023-02-08T12:46:46.324Z,3.85
2023-02-08T12:51:07.368Z,4.55
2023-02-08T12:55:21.565Z,4.25
2023-02-08T12:59:33.256Z,4.25
2023-02-08T13:04:04.383Z,3.80
2023-02-08T13:08:34.632Z,4.50
2023-02-08T13:12:43.868Z,4.50
2023-02-08T13:16:52.188Z,4.00
2023-02-08T13:21:12.756Z,4.50
2023-02-08T13:25:30.331Z,3.97
2023-02-08T13:29:33.734Z,4.50
2023-02-08T13:33:59.285Z,5.40
2023-02-08T13:38:07.376Z,6.85
2023-02-08T13:42:27.568Z,6.03
2023-02-08T13:46:58.487Z,5.68
2023-02-08T13:51:02.588Z,4.13
2023-02-08T13:55:34.393Z,5.53
2023-02-08T13:59:41.408Z,4.60
2023-02-08T14:03:44.690Z,4.68
2023-02-08T14:07:48.625Z,4.72
2023-02-08T14:12:00.665Z,4.65
2023-02-08T14:16:32.622Z,5.30
2023-02-08T14:20:41.979Z,6.22
2023-02-08T14:25:09.739Z,4.65
2023-02-08T14:29:27.724Z,4.85
2023-02-08T14:33:35.000Z,3.65
2023-02-08T14:37:38.178Z,5.47
2023-02-08T14:41:51.852Z,5.03
2023-02-08T14:45:57.600Z,5.15
2023-02-08T14:50:15.932Z,5.22
2023-02-08T14:54:25.592Z,5.38
2023-02-08T14:58:35.528Z,5.60
2023-02-08T15:02:44.306Z,6.70
2023-02-08T15:07:08.665Z,5.60
2023-02-08T15:11:26.828Z,4.72
2023-02-08T15:15:34.630Z,5.53
2023-02-08T15:19:39.272Z,5.47
